createdAt,value
2018-12-09T00:00:53.310Z,4.06
2018-12-09T00:15:52.242Z,4.10
2018-12-09T00:30:51.136Z,4.25
2018-12-09T00:45:54.053Z,4.32
2018-12-09T01:00:50.419Z,4.39
2018-12-09T01:15:50.890Z,4.54
2018-12-09T01:30:51.324Z,4.67
2018-12-09T01:45:51.657Z,4.77
2018-12-09T02:00:51.581Z,4.93
2018-12-09T02:15:51.102Z,5.01
2018-12-09T02:30:52.328Z,5.06
2018-12-09T02:45:51.788Z,5.01
2018-12-09T03:00:51.284Z,4.91
2018-12-09T03:15:51.206Z,4.83
2018-12-09T03:30:51.575Z,4.78
2018-12-09T03:45:51.555Z,4.78
2018-12-09T04:00:51.964Z,4.74
2018-12-09T04:15:51.366Z,4.73
2018-12-09T04:30:50.759Z,4.72
2018-12-09T04:45:53.700Z,4.74
2018-12-09T05:00:55.778Z,4.72
2018-12-09T05:15:51.566Z,4.69
2018-12-09T05:30:52.441Z,4.71
2018-12-09T05:45:51.235Z,4.70
2018-12-09T06:00:50.642Z,4.87
2018-12-09T06:15:53.573Z,4.97
2018-12-09T06:30:50.386Z,4.98
2018-12-09T06:45:51.484Z,4.97
2018-12-09T07:00:50.650Z,5.02
2018-12-09T07:15:50.600Z,5.03
2018-12-09T07:30:51.174Z,5.28
2018-12-09T07:45:51.313Z,5.46
2018-12-09T08:00:51.111Z,5.51
2018-12-09T08:15:50.445Z,6.63
2018-12-09T14:45:50.967Z,6.10
2018-12-09T15:00:50.906Z,5.81
2018-12-09T15:15:51.487Z,5.38
2018-12-09T15:30:51.726Z,4.95
2018-12-09T15:45:52.048Z,4.61
2018-12-09T16:00:56.429Z,4.32
2018-12-09T16:15:51.800Z,4.10
2018-12-09T16:30:53.292Z,3.87
2018-12-09T16:45:50.588Z,3.54
2018-12-09T17:00:51.150Z,3.45
2018-12-09T17:15:54.036Z,3.41
2018-12-09T17:30:53.565Z,3.35
2018-12-09T17:45:51.474Z,3.22
2018-12-09T18:00:51.074Z,3.04
2018-12-09T18:15:54.727Z,2.73
2018-12-09T18:30:54.590Z,2.72
2018-12-09T18:45:57.234Z,2.67
2018-12-09T19:00:51.327Z,2.70
2018-12-09T19:15:55.097Z,2.86
2018-12-09T19:30:54.228Z,2.76
2018-12-09T19:45:51.484Z,2.75
2018-12-09T20:00:53.959Z,2.93
2018-12-09T20:15:54.848Z,3.24
2018-12-09T20:30:53.372Z,2.78
2018-12-09T20:45:51.965Z,2.81
2018-12-09T21:00:51.575Z,2.75
2018-12-09T21:15:52.346Z,2.99
2018-12-09T21:30:53.373Z,2.77
2018-12-09T21:45:50.699Z,3.04
2018-12-09T22:00:50.686Z,2.96
2018-12-09T22:15:51.121Z,2.99
2018-12-09T22:30:56.875Z,2.74
2018-12-09T22:45:54.196Z,2.67
2018-12-09T23:00:55.602Z,2.49
2018-12-09T23:15:50.399Z,2.45
2018-12-09T23:30:52.263Z,2.43
2018-12-09T23:45:52.643Z,2.41
